Time;durP1;ratioP1;P1;durP2;ratioP2;P2;SDS_P1;SDS_P2;PMS_P1;PMS_P2;Temp;Humidity;BMP_temperature;BMP_pressure;BME280_temperature;BME280_humidity;BME280_pressure;Samples;Min_cycle;Max_cycle;Signal;HPM_P1;HPM_P2
2022/05/04 00:02:16;;;;;;;10.35;3.97;;;;;;;;;;6262855;22;20556;31
2022/05/04 00:11:30;;;;;;;7.57;3.78;;;;;;;;;;6137308;23;20207;31
2022/05/04 00:15:49;;;;;;;8.48;3.90;;;;;;;;;;6230022;22;20559;-59
2022/05/04 00:23:54;;;;;;;10.25;4.00;;;;;;;;;;6293011;22;20690;31
2022/05/04 00:33:02;;;;;;;11.38;3.88;;;;;;;;;;6206793;22;20225;31
2022/05/04 00:40:08;;;;;;;7.60;3.33;;;;;;;;;;6296304;22;20208;31
2022/05/04 00:44:39;;;;;;;7.68;3.80;;;;;;;;;;6205964;22;20501;-60
2022/05/04 00:52:30;;;;;;;7.97;4.10;;;;;;;;;;6206164;22;20586;31
2022/05/04 01:02:12;;;;;;;8.60;3.83;;;;;;;;;;6268621;22;20205;31
2022/05/04 01:06:40;;;;;;;7.20;3.92;;;;;;;;;;6259877;22;20511;31
2022/05/04 01:30:06;;;;;;;;;;;;;;;;;;;;;
2022/05/04 01:36:54;;;;;;;11.13;4.20;;;;;;;;;;6225663;22;20201;31
2022/05/04 01:56:08;;;;;;;11.00;3.90;;;;;;;;;;6290708;22;20572;31
2022/05/04 02:03:04;;;;;;;11.75;3.78;;;;;;;;;;6322761;22;20608;31
2022/05/04 02:10:09;;;;;;;11.80;3.67;;;;;;;;;;6289229;22;20539;-58
2022/05/04 02:19:50;;;;;;;8.52;3.33;;;;;;;;;;6289587;22;20199;31
2022/05/04 02:40:43;;;;;;;10.43;3.90;;;;;;;;;;6289555;22;20200;31
2022/05/04 02:44:58;;;;;;;8.32;3.83;;;;;;;;;;6291104;22;20527;31
2022/05/04 02:54:05;;;;;;;9.70;3.67;;;;;;;;;;6135534;23;20203;31
2022/05/04 03:00:45;;;;;;;6.50;3.75;;;;;;;;;;6320300;22;20203;31
2022/05/04 03:19:29;;;;;;;9.25;3.80;;;;;;;;;;6324254;22;20510;31
2022/05/04 03:26:21;;;;;;;9.35;4.25;;;;;;;;;;6261639;22;20626;31
2022/05/04 03:33:11;;;;;;;8.07;3.70;;;;;;;;;;5914193;22;20662;31
2022/05/04 03:40:20;;;;;;;12.57;4.40;;;;;;;;;;6285644;22;20907;31
2022/05/04 03:49:44;;;;;;;9.60;5.07;;;;;;;;;;6287937;22;20568;31
2022/05/04 03:54:03;;;;;;;8.45;5.20;;;;;;;;;;6231608;22;21682;31
2022/05/04 04:08:39;;;;;;;8.40;4.78;;;;;;;;;;6323759;22;20522;31
2022/05/04 04:24:37;;;;;;;8.27;4.90;;;;;;;;;;6204110;22;20206;31
2022/05/04 04:31:26;;;;;;;10.25;4.88;;;;;;;;;;6227303;22;20201;31
2022/05/04 04:36:05;;;;;;;14.63;5.57;;;;;;;;;;6323600;22;20538;-60
2022/05/04 04:45:17;;;;;;;15.90;5.70;;;;;;;;;;6144208;23;20207;31
2022/05/04 04:49:50;;;;;;;9.07;4.55;;;;;;;;;;6206168;22;20522;-60
2022/05/04 04:56:42;;;;;;;8.52;4.70;;;;;;;;;;6224593;22;20534;-59
2022/05/04 05:18:41;;;;;;;10.05;4.60;;;;;;;;;;6290338;22;20519;31
2022/05/04 05:28:10;;;;;;;8.38;4.40;;;;;;;;;;6289016;22;20203;31
2022/05/04 05:39:29;;;;;;;10.10;4.93;;;;;;;;;;6292818;22;20269;31
2022/05/04 05:46:02;;;;;;;6.22;4.15;;;;;;;;;;6178408;22;20587;-60
2022/05/04 05:55:39;;;;;;;9.68;4.88;;;;;;;;;;6333440;22;20204;31
2022/05/04 06:02:16;;;;;;;10.02;4.25;;;;;;;;;;6145826;23;20203;31
2022/05/04 06:09:05;;;;;;;11.18;3.97;;;;;;;;;;6227575;22;20205;31
2022/05/04 06:13:49;;;;;;;9.30;3.92;;;;;;;;;;6349731;22;20555;31
2022/05/04 06:20:28;;;;;;;11.35;4.40;;;;;;;;;;6293680;22;20515;31
2022/05/04 06:36:07;;;;;;;9.65;3.72;;;;;;;;;;6289926;22;20201;31
2022/05/04 06:48:02;;;;;;;11.23;3.88;;;;;;;;;;6212692;22;20272;31
2022/05/04 06:57:33;;;;;;;6.93;2.85;;;;;;;;;;6259102;22;20200;31
2022/05/04 07:02:13;;;;;;;9.02;3.10;;;;;;;;;;6286056;22;20554;-60
2022/05/04 07:10:11;;;;;;;5.93;2.90;;;;;;;;;;6261096;22;21483;31
2022/05/04 07:17:09;;;;;;;11.30;3.60;;;;;;;;;;6224017;22;21008;31
2022/05/04 07:26:12;;;;;;;7.25;3.00;;;;;;;;;;6137283;23;20207;31
2022/05/04 07:32:50;;;;;;;12.65;3.20;;;;;;;;;;6290513;22;20192;31
2022/05/04 07:47:06;;;;;;;7.70;2.65;;;;;;;;;;6320367;22;20195;31
2022/05/04 08:13:36;;;;;;;7.63;3.97;;;;;;;;;;6324333;22;21370;31
2022/05/04 08:34:03;;;;;;;8.85;4.00;;;;;;;;;;6229497;22;21306;-61
2022/05/04 08:41:10;;;;;;;9.20;4.32;;;;;;;;;;6206418;22;20521;-59
2022/05/04 08:48:51;;;;;;;8.88;3.85;;;;;;;;;;5923628;22;20677;31
2022/05/04 08:58:22;;;;;;;7.28;3.15;;;;;;;;;;6322384;22;20199;31
2022/05/04 09:02:45;;;;;;;8.95;2.83;;;;;;;;;;6325660;22;22285;31
2022/05/04 09:12:30;;;;;;;10.82;3.70;;;;;;;;;;6291705;22;20203;31
2022/05/04 09:17:01;;;;;;;10.48;3.13;;;;;;;;;;6202150;22;20529;31
2022/05/04 09:26:49;;;;;;;6.65;3.05;;;;;;;;;;6210988;22;20193;31
2022/05/04 09:33:56;;;;;;;6.93;2.70;;;;;;;;;;6259710;22;20196;31
2022/05/04 09:50:04;;;;;;;9.45;2.65;;;;;;;;;;6335227;22;20203;31
2022/05/04 09:54:17;;;;;;;5.60;2.88;;;;;;;;;;6324917;22;20516;31
2022/05/04 10:11:25;;;;;;;4.63;2.40;;;;;;;;;;6259517;22;20216;31
2022/05/04 10:15:36;;;;;;;5.35;2.97;;;;;;;;;;6294049;22;20906;31
2022/05/04 10:22:17;;;;;;;7.05;3.00;;;;;;;;;;6323319;22;20478;-58
2022/05/04 10:32:03;;;;;;;6.70;2.88;;;;;;;;;;6323104;22;20552;31
2022/05/04 10:38:40;;;;;;;7.60;3.90;;;;;;;;;;6146130;23;20203;31
2022/05/04 10:45:33;;;;;;;7.88;3.35;;;;;;;;;;6175991;23;20202;31
2022/05/04 10:52:48;;;;;;;8.07;3.17;;;;;;;;;;6347569;22;20543;-61
2022/05/04 11:10:20;;;;;;;6.10;3.38;;;;;;;;;;6201899;22;21845;31
2022/05/04 11:16:59;;;;;;;8.85;3.30;;;;;;;;;;6189067;22;20542;-62
2022/05/04 11:19:29;;;;;;;13.45;3.90;;;;;;;;;;6194741;23;20159;-62
2022/05/04 11:21:56;;;;;;;8.52;3.35;;;;;;;;;;6194458;23;20164;-61
2022/05/04 11:24:22;;;;;;;8.55;3.53;;;;;;;;;;6194297;23;20156;-62
2022/05/04 11:26:50;;;;;;;7.95;3.63;;;;;;;;;;6194234;23;20149;-62
2022/05/04 11:29:23;;;;;;;7.60;3.53;;;;;;;;;;6194697;23;20148;-62
2022/05/04 11:31:56;;;;;;;11.98;3.70;;;;;;;;;;6194463;23;20155;-62
2022/05/04 11:34:23;;;;;;;8.52;3.70;;;;;;;;;;6194573;23;20129;-61
2022/05/04 11:36:49;;;;;;;8.10;3.55;;;;;;;;;;6194087;23;20583;-62
2022/05/04 11:39:19;;;;;;;6.50;3.15;;;;;;;;;;6194375;23;20490;-62
2022/05/04 11:41:46;;;;;;;11.13;3.75;;;;;;;;;;6194209;23;20144;-62
2022/05/04 11:44:12;;;;;;;7.45;3.38;;;;;;;;;;6194508;23;20203;-62
2022/05/04 11:46:38;;;;;;;10.07;4.60;;;;;;;;;;6194514;23;20224;-62
2022/05/04 11:49:07;;;;;;;5.32;3.03;;;;;;;;;;6194307;23;20498;-61
2022/05/04 11:51:34;;;;;;;7.40;3.10;;;;;;;;;;6194501;23;20235;-62
2022/05/04 11:54:00;;;;;;;8.88;2.83;;;;;;;;;;6194212;23;20141;-62
2022/05/04 11:56:26;;;;;;;8.20;3.40;;;;;;;;;;6193937;23;20168;-62
2022/05/04 11:58:52;;;;;;;9.48;2.97;;;;;;;;;;6194384;23;20141;-62
2022/05/04 12:01:18;;;;;;;6.72;2.60;;;;;;;;;;6194418;23;20490;-62
2022/05/04 12:03:44;;;;;;;8.05;2.78;;;;;;;;;;6194030;23;20141;-62
2022/05/04 12:06:11;;;;;;;8.13;2.60;;;;;;;;;;6194035;23;20141;-63
2022/05/04 12:08:38;;;;;;;7.13;2.70;;;;;;;;;;6194474;23;20481;-62
2022/05/04 12:11:05;;;;;;;13.13;2.60;;;;;;;;;;6194317;23;20163;-62
2022/05/04 12:20:49;;;;;;;5.63;2.70;;;;;;;;;;6151256;23;20204;31
2022/05/04 12:37:52;;;;;;;7.43;2.58;;;;;;;;;;6148448;23;20277;-62
2022/05/04 12:40:18;;;;;;;6.85;3.10;;;;;;;;;;6155637;23;20185;-62
2022/05/04 12:42:45;;;;;;;6.25;2.80;;;;;;;;;;6152735;23;20193;31
2022/05/04 12:47:41;;;;;;;4.85;2.70;;;;;;;;;;6155598;23;20193;-62
2022/05/04 12:50:07;;;;;;;5.88;3.20;;;;;;;;;;6153119;23;20186;-62
2022/05/04 12:57:27;;;;;;;5.13;2.72;;;;;;;;;;6149354;23;20203;-62
2022/05/04 12:59:53;;;;;;;8.88;2.97;;;;;;;;;;6148109;23;20628;-62
2022/05/04 13:04:48;;;;;;;8.43;2.77;;;;;;;;;;6105498;23;895971;-62
2022/05/04 13:07:14;;;;;;;5.72;2.55;;;;;;;;;;6142996;23;20476;-62
2022/05/04 13:09:42;;;;;;;7.13;2.80;;;;;;;;;;6146013;23;20193;-62
2022/05/04 13:17:00;;;;;;;6.70;2.80;;;;;;;;;;6088529;23;1185084;31
2022/05/04 13:19:26;;;;;;;8.32;2.88;;;;;;;;;;6113072;23;20189;-62
2022/05/04 13:21:52;;;;;;;7.70;2.67;;;;;;;;;;6116086;23;20184;-62
2022/05/04 13:24:18;;;;;;;7.20;2.75;;;;;;;;;;6120123;23;20185;-62
2022/05/04 13:34:04;;;;;;;9.05;3.28;;;;;;;;;;6119143;23;20188;-62
2022/05/04 13:36:30;;;;;;;9.45;3.72;;;;;;;;;;6117617;23;20273;-62
2022/05/04 13:38:55;;;;;;;6.38;2.92;;;;;;;;;;6126830;23;20143;-61
2022/05/04 13:41:22;;;;;;;7.88;3.08;;;;;;;;;;6127409;23;20488;-62
2022/05/04 13:43:48;;;;;;;8.35;2.75;;;;;;;;;;6126988;23;20146;-62
2022/05/04 13:46:14;;;;;;;9.38;3.38;;;;;;;;;;6127708;23;20197;-62
2022/05/04 13:48:43;;;;;;;5.93;2.70;;;;;;;;;;6127446;23;20409;-60
2022/05/04 13:53:54;;;;;;;6.53;2.80;;;;;;;;;;6127172;23;20441;-63
2022/05/04 13:56:20;;;;;;;7.85;2.72;;;;;;;;;;6127167;23;20166;-61
2022/05/04 13:58:46;;;;;;;6.05;2.53;;;;;;;;;;6127167;23;20138;-60
2022/05/04 14:01:12;;;;;;;7.38;3.00;;;;;;;;;;6127324;23;20230;-63
2022/05/04 14:03:39;;;;;;;7.82;2.80;;;;;;;;;;6127871;23;20153;-61
2022/05/04 14:06:06;;;;;;;5.82;2.85;;;;;;;;;;6127293;23;20217;-63
2022/05/04 14:08:31;;;;;;;5.53;2.88;;;;;;;;;;6127104;23;20641;-62
2022/05/04 14:10:57;;;;;;;5.85;2.38;;;;;;;;;;6127273;23;20221;-62
2022/05/04 14:13:24;;;;;;;9.00;2.45;;;;;;;;;;6127026;23;20153;-62
2022/05/04 14:15:51;;;;;;;5.72;2.63;;;;;;;;;;6127341;23;20181;-61
2022/05/04 14:18:17;;;;;;;5.40;2.63;;;;;;;;;;6127302;23;20437;-63
2022/05/04 14:20:43;;;;;;;5.72;2.33;;;;;;;;;;6127459;23;20153;-62
2022/05/04 14:23:10;;;;;;;6.13;3.08;;;;;;;;;;6126880;23;20143;-63
2022/05/04 14:25:35;;;;;;;7.82;2.70;;;;;;;;;;6127210;23;20154;-62
2022/05/04 14:28:01;;;;;;;4.40;2.20;;;;;;;;;;6126634;23;20147;-63
2022/05/04 14:30:27;;;;;;;6.00;2.70;;;;;;;;;;6126935;23;20143;-61
2022/05/04 14:32:53;;;;;;;6.15;2.50;;;;;;;;;;6126992;23;20146;-62
2022/05/04 14:35:19;;;;;;;7.82;2.22;;;;;;;;;;6126912;23;20170;-63
2022/05/04 14:37:46;;;;;;;5.72;2.40;;;;;;;;;;6126392;23;20158;-63
2022/05/04 14:40:11;;;;;;;5.90;2.35;;;;;;;;;;6127159;23;20143;-63
2022/05/04 14:42:37;;;;;;;6.53;2.40;;;;;;;;;;6126714;23;20555;-63
2022/05/04 14:45:04;;;;;;;4.28;2.40;;;;;;;;;;6126646;23;20142;-63
2022/05/04 14:47:30;;;;;;;5.18;2.42;;;;;;;;;;6126751;23;20225;-63
2022/05/04 14:49:56;;;;;;;7.70;2.17;;;;;;;;;;6126728;23;20170;-63
2022/05/04 14:52:22;;;;;;;6.55;2.50;;;;;;;;;;6127054;23;20142;-63
2022/05/04 14:54:48;;;;;;;5.45;2.13;;;;;;;;;;6126886;23;20414;-62
2022/05/04 14:57:15;;;;;;;4.82;2.78;;;;;;;;;;6126792;23;20138;-63
2022/05/04 14:59:41;;;;;;;5.88;2.55;;;;;;;;;;6126567;23;20506;-63
2022/05/04 15:02:07;;;;;;;3.95;2.38;;;;;;;;;;6126372;23;20225;-63
2022/05/04 15:07:17;;;;;;;6.15;2.17;;;;;;;;;;6126889;23;20209;-63
2022/05/04 15:09:44;;;;;;;4.50;1.83;;;;;;;;;;6126978;23;20157;-62
2022/05/04 15:12:11;;;;;;;6.05;2.50;;;;;;;;;;6126910;23;20234;-62
2022/05/04 15:14:36;;;;;;;5.20;2.08;;;;;;;;;;6126480;23;20143;-61
2022/05/04 15:17:02;;;;;;;6.95;2.20;;;;;;;;;;6126720;23;20225;-63
2022/05/04 15:19:29;;;;;;;9.20;2.60;;;;;;;;;;6127518;23;20142;-63
2022/05/04 15:21:57;;;;;;;4.70;1.90;;;;;;;;;;6126723;23;20142;-63
2022/05/04 15:24:23;;;;;;;5.20;2.05;;;;;;;;;;6126149;23;20635;-62
2022/05/04 15:26:49;;;;;;;5.32;2.08;;;;;;;;;;6127119;23;20214;-62
2022/05/04 15:29:15;;;;;;;5.68;2.17;;;;;;;;;;6127562;23;20171;-62
2022/05/04 15:31:41;;;;;;;3.85;1.98;;;;;;;;;;6140831;23;20434;-62
2022/05/04 15:34:07;;;;;;;4.50;1.95;;;;;;;;;;6128618;23;20159;-61
2022/05/04 15:36:33;;;;;;;4.88;1.75;;;;;;;;;;6126305;23;20712;-62
2022/05/04 15:38:59;;;;;;;4.50;2.00;;;;;;;;;;6126543;23;20410;-62
2022/05/04 15:41:25;;;;;;;3.47;1.90;;;;;;;;;;6126778;23;20150;-62
2022/05/04 15:43:51;;;;;;;3.42;1.70;;;;;;;;;;6126850;23;20151;-63
2022/05/04 15:46:17;;;;;;;6.13;1.85;;;;;;;;;;6126278;23;20197;-63
2022/05/04 15:48:42;;;;;;;2.53;1.70;;;;;;;;;;6126719;23;20193;-63
2022/05/04 15:51:08;;;;;;;7.43;2.55;;;;;;;;;;6126550;23;20204;-63
2022/05/04 15:53:36;;;;;;;4.90;2.13;;;;;;;;;;6126270;23;20202;-62
2022/05/04 15:56:02;;;;;;;5.22;1.88;;;;;;;;;;6126748;23;20264;-63
2022/05/04 15:58:28;;;;;;;4.93;1.70;;;;;;;;;;6126367;23;20138;-63
2022/05/04 16:00:54;;;;;;;4.38;1.90;;;;;;;;;;6126409;23;20139;-63
2022/05/04 16:06:04;;;;;;;4.63;2.13;;;;;;;;;;6128320;23;20210;-63
2022/05/04 16:08:30;;;;;;;4.35;1.92;;;;;;;;;;6128531;23;20154;-63
2022/05/04 16:10:56;;;;;;;5.43;1.73;;;;;;;;;;6128175;23;20226;-63
2022/05/04 16:13:22;;;;;;;4.22;1.70;;;;;;;;;;6128155;23;20171;-63
2022/05/04 16:15:48;;;;;;;4.10;1.95;;;;;;;;;;6127960;23;20206;-63
2022/05/04 16:23:43;;;;;;;5.50;1.90;;;;;;;;;;6127831;23;20444;-63
2022/05/04 16:26:09;;;;;;;4.90;2.05;;;;;;;;;;6128281;23;20151;-63
2022/05/04 16:28:35;;;;;;;5.38;1.98;;;;;;;;;;6128316;23;20610;-63
2022/05/04 16:31:01;;;;;;;6.03;2.15;;;;;;;;;;6127845;23;20146;-63
2022/05/04 16:33:27;;;;;;;6.40;1.92;;;;;;;;;;6128314;23;20222;-63
2022/05/04 16:35:53;;;;;;;5.47;1.98;;;;;;;;;;6127738;23;20167;-63
2022/05/04 16:38:19;;;;;;;4.05;1.77;;;;;;;;;;6127807;23;20159;-62
2022/05/04 16:40:47;;;;;;;2.90;1.80;;;;;;;;;;6128187;23;20182;-63
2022/05/04 16:43:13;;;;;;;3.42;1.60;;;;;;;;;;6128158;23;20157;-63
2022/05/04 16:45:40;;;;;;;5.05;2.35;;;;;;;;;;6127378;23;20446;-63
2022/05/04 16:48:06;;;;;;;7.40;2.40;;;;;;;;;;6128170;23;20229;-63
2022/05/04 16:50:33;;;;;;;5.10;2.00;;;;;;;;;;6127757;23;20149;-63
2022/05/04 16:52:58;;;;;;;5.07;2.03;;;;;;;;;;6128094;23;20159;-63
2022/05/04 16:55:24;;;;;;;6.03;2.10;;;;;;;;;;6127584;23;20249;-63
2022/05/04 16:57:50;;;;;;;5.75;2.10;;;;;;;;;;6127746;23;20570;-63
2022/05/04 17:00:16;;;;;;;4.82;1.95;;;;;;;;;;6127564;23;20218;-63
2022/05/04 17:02:42;;;;;;;4.75;2.25;;;;;;;;;;6127778;23;20147;-63
2022/05/04 17:05:08;;;;;;;6.55;1.90;;;;;;;;;;6127832;23;20483;-62
2022/05/04 17:07:34;;;;;;;4.07;1.70;;;;;;;;;;6127895;23;20225;-63
2022/05/04 17:10:00;;;;;;;3.90;2.10;;;;;;;;;;6127885;23;20193;-63
2022/05/04 17:12:26;;;;;;;4.63;1.80;;;;;;;;;;6127567;23;20532;-63
2022/05/04 17:14:52;;;;;;;3.00;2.00;;;;;;;;;;6127440;23;20531;-63
2022/05/04 17:17:18;;;;;;;5.82;1.90;;;;;;;;;;6127547;23;20143;-63
2022/05/04 17:19:44;;;;;;;4.18;1.90;;;;;;;;;;6127805;23;20416;-63
2022/05/04 17:22:10;;;;;;;3.25;2.00;;;;;;;;;;6127947;23;20151;-63
2022/05/04 17:24:37;;;;;;;4.43;2.03;;;;;;;;;;6127791;23;20581;-61
2022/05/04 17:27:03;;;;;;;4.50;1.80;;;;;;;;;;6127618;23;20147;-62
2022/05/04 17:29:30;;;;;;;6.60;1.95;;;;;;;;;;6127288;23;20143;-63
2022/05/04 17:37:39;;;;;;;5.20;2.20;;;;;;;;;;6127434;23;20192;-63
2022/05/04 17:40:05;;;;;;;4.47;2.15;;;;;;;;;;6127789;23;20147;-63
2022/05/04 17:42:31;;;;;;;3.65;2.10;;;;;;;;;;6127267;23;20174;-62
2022/05/04 17:44:57;;;;;;;6.95;2.28;;;;;;;;;;6127284;23;20205;-62
2022/05/04 17:47:23;;;;;;;5.63;2.00;;;;;;;;;;6127340;23;20201;-63
2022/05/04 17:49:49;;;;;;;5.18;2.00;;;;;;;;;;6127492;23;20153;-63
2022/05/04 17:52:15;;;;;;;5.45;2.25;;;;;;;;;;6127188;23;20169;-63
2022/05/04 17:54:41;;;;;;;7.72;2.90;;;;;;;;;;6127017;23;20637;-63
2022/05/04 17:57:07;;;;;;;6.88;2.03;;;;;;;;;;6127350;23;20178;-63
2022/05/04 17:59:33;;;;;;;4.38;1.83;;;;;;;;;;6127266;23;20444;-63
2022/05/04 18:04:44;;;;;;;4.70;2.58;;;;;;;;;;6127124;23;20146;-62
2022/05/04 18:07:10;;;;;;;4.35;2.30;;;;;;;;;;6127731;23;20142;-62
2022/05/04 18:09:36;;;;;;;4.10;2.05;;;;;;;;;;6127375;23;20146;-62
2022/05/04 18:12:03;;;;;;;4.45;1.85;;;;;;;;;;6127707;23;20438;-62
2022/05/04 18:14:29;;;;;;;4.10;1.98;;;;;;;;;;6127250;23;20146;-62
2022/05/04 18:16:55;;;;;;;4.78;1.92;;;;;;;;;;6127260;23;20170;-62
2022/05/04 18:19:21;;;;;;;5.65;2.10;;;;;;;;;;6127506;23;20147;-62
2022/05/04 18:21:47;;;;;;;5.45;2.20;;;;;;;;;;6127103;23;20149;-62
2022/05/04 18:24:14;;;;;;;3.72;1.95;;;;;;;;;;6127389;23;20143;-61
2022/05/04 18:26:40;;;;;;;4.65;2.20;;;;;;;;;;6127144;23;20155;-62
2022/05/04 18:29:06;;;;;;;5.70;2.40;;;;;;;;;;6126995;23;20444;-62
2022/05/04 18:31:32;;;;;;;4.32;2.10;;;;;;;;;;6127077;23;20166;-62
2022/05/04 18:33:58;;;;;;;4.95;2.65;;;;;;;;;;6126667;23;20143;-62
2022/05/04 18:36:30;;;;;;;3.67;2.20;;;;;;;;;;6126692;23;20166;-62
2022/05/04 18:39:00;;;;;;;5.63;2.30;;;;;;;;;;6127258;23;20148;-62
2022/05/04 18:41:26;;;;;;;5.88;2.60;;;;;;;;;;6126670;23;20142;-62
2022/05/04 18:43:52;;;;;;;8.13;2.72;;;;;;;;;;6126548;23;20154;-63
2022/05/04 18:46:18;;;;;;;6.78;3.22;;;;;;;;;;6127216;23;20146;-62
2022/05/04 18:48:44;;;;;;;5.50;2.55;;;;;;;;;;6127449;23;20559;-62
2022/05/04 18:51:11;;;;;;;5.75;2.10;;;;;;;;;;6127287;23;20162;-61
2022/05/04 18:53:37;;;;;;;4.65;2.50;;;;;;;;;;6127884;23;20630;-62
2022/05/04 18:56:03;;;;;;;8.73;2.80;;;;;;;;;;6127681;23;20174;-62
2022/05/04 18:58:29;;;;;;;5.57;2.97;;;;;;;;;;6127547;23;20169;-62
2022/05/04 19:00:56;;;;;;;6.22;2.70;;;;;;;;;;6126386;23;20167;-62
2022/05/04 19:03:22;;;;;;;7.15;2.53;;;;;;;;;;6126592;23;20173;-62
2022/05/04 19:05:47;;;;;;;5.47;2.58;;;;;;;;;;6126803;23;20615;-62
2022/05/04 19:08:13;;;;;;;5.30;2.50;;;;;;;;;;6126488;23;20147;-62
2022/05/04 19:10:40;;;;;;;6.40;2.85;;;;;;;;;;6126280;23;20147;-62
2022/05/04 19:13:06;;;;;;;8.60;2.65;;;;;;;;;;6126478;23;20581;-61
2022/05/04 19:15:32;;;;;;;5.78;2.83;;;;;;;;;;6126379;23;20170;-62
2022/05/04 19:17:58;;;;;;;6.90;2.50;;;;;;;;;;6126957;23;20205;-62
2022/05/04 19:20:23;;;;;;;4.20;2.72;;;;;;;;;;6126783;23;20143;-62
2022/05/04 19:22:49;;;;;;;5.90;2.85;;;;;;;;;;6126380;23;20164;-62
2022/05/04 19:25:15;;;;;;;5.35;2.85;;;;;;;;;;6126540;23;20143;-60
2022/05/04 19:27:41;;;;;;;5.20;2.70;;;;;;;;;;6128081;23;20560;-62
2022/05/04 19:30:07;;;;;;;5.13;2.85;;;;;;;;;;6127291;23;20226;-61
2022/05/04 19:32:34;;;;;;;7.70;2.63;;;;;;;;;;6127741;23;20151;-60
2022/05/04 19:35:00;;;;;;;9.27;3.10;;;;;;;;;;6128156;23;20241;-61
2022/05/04 19:37:26;;;;;;;6.30;2.83;;;;;;;;;;6127682;23;20182;-62
2022/05/04 19:39:52;;;;;;;5.05;3.40;;;;;;;;;;6129641;23;20170;-62
2022/05/04 19:42:18;;;;;;;5.68;3.03;;;;;;;;;;6128759;23;20578;-61
2022/05/04 19:44:44;;;;;;;5.93;2.67;;;;;;;;;;6128832;23;20562;-61
2022/05/04 19:47:10;;;;;;;5.82;2.78;;;;;;;;;;6128475;23;20155;-62
2022/05/04 19:49:36;;;;;;;6.07;2.80;;;;;;;;;;6128653;23;20178;-61
2022/05/04 19:52:03;;;;;;;5.85;3.00;;;;;;;;;;6128345;23;20206;-61
2022/05/04 19:54:29;;;;;;;8.88;3.00;;;;;;;;;;6128765;23;20155;-61
2022/05/04 19:56:55;;;;;;;5.75;3.00;;;;;;;;;;6128503;23;20525;-61
2022/05/04 19:59:21;;;;;;;7.07;3.60;;;;;;;;;;6128464;23;20147;-61
2022/05/04 20:01:47;;;;;;;5.72;3.30;;;;;;;;;;6128225;23;20566;-61
2022/05/04 20:04:13;;;;;;;10.10;3.53;;;;;;;;;;6128165;23;20143;-61
2022/05/04 20:06:39;;;;;;;6.85;4.03;;;;;;;;;;6128553;23;20147;-61
2022/05/04 20:09:06;;;;;;;8.50;4.22;;;;;;;;;;6128294;23;20143;-61
2022/05/04 20:11:32;;;;;;;7.10;3.65;;;;;;;;;;6128587;23;20466;-61
2022/05/04 20:13:57;;;;;;;6.28;3.47;;;;;;;;;;6128487;23;20544;-61
2022/05/04 20:16:24;;;;;;;9.48;4.07;;;;;;;;;;6128307;23;20167;-60
2022/05/04 20:18:50;;;;;;;7.07;4.07;;;;;;;;;;6128836;23;20158;-60
2022/05/04 20:21:16;;;;;;;8.63;3.63;;;;;;;;;;6128739;23;20175;-61
2022/05/04 20:23:45;;;;;;;7.03;3.83;;;;;;;;;;6128248;23;20222;-61
2022/05/04 20:26:11;;;;;;;7.72;3.42;;;;;;;;;;6128448;23;20301;-60
2022/05/04 20:28:37;;;;;;;7.65;3.72;;;;;;;;;;6128057;23;20143;-60
2022/05/04 20:31:03;;;;;;;8.98;4.03;;;;;;;;;;6128465;23;20217;-61
2022/05/04 20:33:29;;;;;;;6.07;3.72;;;;;;;;;;6128043;23;20147;-60
2022/05/04 20:35:55;;;;;;;4.72;3.75;;;;;;;;;;6128466;23;20175;-61
2022/05/04 20:41:06;;;;;;;8.05;4.30;;;;;;;;;;6128836;23;20146;-60
2022/05/04 20:43:33;;;;;;;7.32;3.92;;;;;;;;;;6128297;23;20143;-59
2022/05/04 20:45:59;;;;;;;6.95;4.50;;;;;;;;;;6127925;23;20170;-58
2022/05/04 20:48:25;;;;;;;9.43;4.38;;;;;;;;;;6127641;23;20154;-59
2022/05/04 20:53:35;;;;;;;10.52;4.75;;;;;;;;;;6128182;23;20149;-60
2022/05/04 20:56:01;;;;;;;11.68;4.32;;;;;;;;;;6127955;23;20246;-60
2022/05/04 20:58:27;;;;;;;11.35;4.80;;;;;;;;;;6128154;23;20629;-60
2022/05/04 21:00:53;;;;;;;5.20;3.70;;;;;;;;;;6127649;23;20543;-60
2022/05/04 21:03:20;;;;;;;8.27;4.20;;;;;;;;;;6128025;23;20147;-60
2022/05/04 21:05:46;;;;;;;8.60;4.25;;;;;;;;;;6127753;23;20495;-60
2022/05/04 21:08:12;;;;;;;8.38;4.57;;;;;;;;;;6128032;23;20154;-60
2022/05/04 21:10:37;;;;;;;7.43;4.57;;;;;;;;;;6127698;23;20158;-60
2022/05/04 21:13:07;;;;;;;6.55;4.07;;;;;;;;;;6127631;23;20225;-60
2022/05/04 21:15:33;;;;;;;10.25;4.28;;;;;;;;;;6128005;23;20167;-61
2022/05/04 21:17:58;;;;;;;8.70;4.47;;;;;;;;;;6128282;23;20151;-60
2022/05/04 21:20:25;;;;;;;6.65;4.28;;;;;;;;;;6127703;23;20171;-59
2022/05/04 21:22:51;;;;;;;8.32;4.13;;;;;;;;;;6127791;23;20212;-61
2022/05/04 21:25:17;;;;;;;8.45;4.60;;;;;;;;;;6127576;23;20589;-59
2022/05/04 21:27:44;;;;;;;9.15;4.57;;;;;;;;;;6127453;23;20194;-59
2022/05/04 21:30:10;;;;;;;9.10;5.32;;;;;;;;;;6128013;23;20400;-59
2022/05/04 21:32:36;;;;;;;11.80;4.43;;;;;;;;;;6127949;23;20579;-59
2022/05/04 21:35:02;;;;;;;10.98;5.18;;;;;;;;;;6127704;23;20150;-60
2022/05/04 21:37:28;;;;;;;7.70;5.07;;;;;;;;;;6127302;23;20643;-61
2022/05/04 21:39:54;;;;;;;11.35;5.43;;;;;;;;;;6127346;23;20602;-59
2022/05/04 21:42:20;;;;;;;8.93;5.30;;;;;;;;;;6127310;23;20139;-59
2022/05/04 21:44:46;;;;;;;8.70;4.93;;;;;;;;;;6127300;23;20571;-59
2022/05/04 21:47:12;;;;;;;8.23;5.03;;;;;;;;;;6127600;23;20147;-59
2022/05/04 21:49:38;;;;;;;9.35;5.40;;;;;;;;;;6127638;23;20151;-61
2022/05/04 21:52:05;;;;;;;8.02;4.95;;;;;;;;;;6127256;23;20153;-61
2022/05/04 21:54:31;;;;;;;8.40;5.97;;;;;;;;;;6127068;23;20175;-60
2022/05/04 21:56:57;;;;;;;9.20;5.97;;;;;;;;;;6127469;23;20194;-60
2022/05/04 21:59:23;;;;;;;11.20;6.25;;;;;;;;;;6126628;23;20155;-61
2022/05/04 22:01:49;;;;;;;10.05;6.40;;;;;;;;;;6127321;23;20143;-59
2022/05/04 22:04:14;;;;;;;9.55;6.68;;;;;;;;;;6127136;23;20154;-60
2022/05/04 22:06:40;;;;;;;8.23;6.32;;;;;;;;;;6127073;23;20147;-59
2022/05/04 22:09:06;;;;;;;15.45;6.10;;;;;;;;;;6127033;23;20574;-60
2022/05/04 22:14:17;;;;;;;6.65;5.05;;;;;;;;;;6127435;23;20201;-59
2022/05/04 22:16:43;;;;;;;8.25;5.28;;;;;;;;;;6127154;23;20170;-60
2022/05/04 22:19:09;;;;;;;8.20;5.28;;;;;;;;;;6127270;23;20149;-59
2022/05/04 22:21:35;;;;;;;12.65;5.72;;;;;;;;;;6127445;23;20146;-58
2022/05/04 22:24:01;;;;;;;10.55;5.95;;;;;;;;;;6127110;23;20150;-60
2022/05/04 22:26:27;;;;;;;7.13;5.50;;;;;;;;;;6127405;23;20178;-60
2022/05/04 22:28:53;;;;;;;9.13;5.40;;;;;;;;;;6127345;23;20229;-60
2022/05/04 22:31:19;;;;;;;9.80;5.88;;;;;;;;;;6126897;23;20165;-58
2022/05/04 22:33:45;;;;;;;9.15;5.75;;;;;;;;;;6127360;23;20226;-60
2022/05/04 22:36:11;;;;;;;11.05;6.07;;;;;;;;;;6127468;23;20170;-60
2022/05/04 22:38:37;;;;;;;13.82;5.70;;;;;;;;;;6126681;23;20159;-60
2022/05/04 22:41:04;;;;;;;9.82;5.72;;;;;;;;;;6126995;23;20151;-59
2022/05/04 22:43:30;;;;;;;9.73;5.85;;;;;;;;;;6126634;23;20155;-60
2022/05/04 22:45:56;;;;;;;13.30;7.00;;;;;;;;;;6127153;23;20178;-60
2022/05/04 22:48:22;;;;;;;12.35;7.60;;;;;;;;;;6126742;23;20555;-61
2022/05/04 22:50:48;;;;;;;15.70;7.35;;;;;;;;;;6126719;23;20147;-61
2022/05/04 22:53:15;;;;;;;10.05;6.65;;;;;;;;;;6126671;23;20182;-61
2022/05/04 22:55:41;;;;;;;13.10;6.90;;;;;;;;;;6127016;23;20196;-62
2022/05/04 22:58:07;;;;;;;12.85;6.43;;;;;;;;;;6126773;23;20402;-61
2022/05/04 23:00:33;;;;;;;10.68;5.40;;;;;;;;;;6126752;23;20448;-61
2022/05/04 23:02:59;;;;;;;8.05;5.80;;;;;;;;;;6126721;23;20215;-61
2022/05/04 23:05:25;;;;;;;12.55;5.65;;;;;;;;;;6126725;23;20226;-61
2022/05/04 23:07:51;;;;;;;8.65;5.35;;;;;;;;;;6127029;23;20151;-61
2022/05/04 23:10:17;;;;;;;8.88;5.57;;;;;;;;;;6126598;23;20230;-61
2022/05/04 23:12:43;;;;;;;9.70;5.55;;;;;;;;;;6126665;23;20174;-61
2022/05/04 23:15:09;;;;;;;8.80;5.15;;;;;;;;;;6126488;23;20147;-61
2022/05/04 23:17:35;;;;;;;9.48;5.25;;;;;;;;;;6126911;23;20442;-62
2022/05/04 23:20:01;;;;;;;8.52;5.15;;;;;;;;;;6126683;23;20146;-62
2022/05/04 23:22:27;;;;;;;11.48;6.20;;;;;;;;;;6126851;23;20139;-61
2022/05/04 23:24:52;;;;;;;9.73;5.63;;;;;;;;;;6126569;23;20280;-61
2022/05/04 23:27:18;;;;;;;9.15;5.53;;;;;;;;;;6126698;23;20139;-61
2022/05/04 23:29:44;;;;;;;8.23;5.35;;;;;;;;;;6126364;23;20146;-60
2022/05/04 23:32:10;;;;;;;9.30;5.88;;;;;;;;;;6127043;23;20170;-59
2022/05/04 23:34:36;;;;;;;9.93;5.40;;;;;;;;;;6126551;23;20150;-60
2022/05/04 23:40:01;;;;;;;14.32;6.30;;;;;;;;;;6037693;23;20157;-60
2022/05/04 23:42:27;;;;;;;12.23;5.78;;;;;;;;;;6037609;23;20180;-62
2022/05/04 23:44:53;;;;;;;10.40;6.00;;;;;;;;;;6037739;23;20543;-62
2022/05/04 23:47:20;;;;;;;9.30;5.68;;;;;;;;;;6037692;23;20181;-60
2022/05/04 23:49:46;;;;;;;12.77;5.97;;;;;;;;;;6037354;23;20476;-61
2022/05/04 23:52:12;;;;;;;11.20;6.30;;;;;;;;;;6037663;23;20168;-61
2022/05/04 23:54:41;;;;;;;9.65;6.10;;;;;;;;;;6037712;23;20244;-60
2022/05/04 23:57:07;;;;;;;13.15;6.20;;;;;;;;;;6041155;23;20299;-61
2022/05/04 23:59:33;;;;;;;9.77;5.57;;;;;;;;;;6045432;23;20174;-60
